M I D A S
Marine Information and Data Acquisition System
Tripno 1071 of the Zeeleeuw from 2006-04-18 08:40:58 to 2006-04-18 10:53:31
Back to CruiseResearch ActivitiesStationsMapUnderway DataData graphs

EquipmentUnitsComment
TimeDGPSUTC
LatitudeDGPSDM.mWGS84
LongitudeDGPSDM.mWGS84
TemperatureSBE03/SBE38deg celciusITS90
ConductivitySBE21S/mITS90
SalinitySBE21 Practical Salinity Units
ChlorophylAChelsea fluorimeterg/lCalibrated in Aceton
Missing or incorrect values are displayed as -999
Sea surface data collected by the RV Zeeleeuw from 2006-04-18 06:36:17 to 2006-04-18 11:06:56
Time Latitude Longitude Temperature Conductivity Salinity ChlorophylA
2006-04-18 06:37:22 51°13.601 2°56.1 -999 5.145666 33.933294 4.848221
2006-04-18 06:38:22 51°13.605 2°56.074 -999 5.144731 33.930186 4.848221
2006-04-18 06:39:22 51°13.627 2°55.977 -999 5.14442 33.931152 4.848221
2006-04-18 06:40:23 51°13.671 2°55.861 -999 5.142133 33.917487 4.848221
2006-04-18 06:41:22 51°13.708 2°55.764 -999 5.140367 33.908217 4.848221
2006-04-18 06:42:22 51°13.723 2°55.724 -999 5.139328 33.905428 4.848221
2006-04-18 06:43:23 51°13.726 2°55.727 -999 5.140263 33.914543 4.848221
2006-04-18 06:44:22 51°13.73 2°55.715 -999 5.139743 33.91506 4.848221
2006-04-18 06:45:22 51°13.781 2°55.67 -999 5.139224 33.913939 4.814512
2006-04-18 06:46:23 51°13.86 2°55.608 -999 5.138808 33.91468 4.814512
2006-04-18 06:47:22 51°13.933 2°55.543 -999 5.138289 33.914105 4.814512
2006-04-18 06:48:22 51°13.983 2°55.482 -999 5.137769 33.914077 4.814512
2006-04-18 06:49:22 51°14.001 2°55.458 -999 5.137146 33.912731 4.814512
2006-04-18 06:50:22 51°14.005 2°55.455 -999 5.13673 33.913473 4.814512
2006-04-18 06:51:22 51°14.004 2°55.452 -999 5.136107 33.912128 4.814512
2006-04-18 06:52:22 51°14.004 2°55.451 -999 5.135691 33.912324 4.814512
2006-04-18 06:53:22 51°14.004 2°55.451 -999 5.135171 33.911749 4.814512
2006-04-18 06:54:21 51°14.004 2°55.451 -999 5.134652 33.912815 4.814512
2006-04-18 06:55:21 51°14.004 2°55.45 -999 5.134132 33.912787 4.814512
2006-04-18 06:56:22 51°14.004 2°55.45 -999 5.133717 33.912984 4.814512
2006-04-18 06:57:22 51°14.004 2°55.451 -999 5.133197 33.913504 4.814512
2006-04-18 06:58:22 51°14.004 2°55.451 -999 5.132678 33.91293 4.814512
2006-04-18 06:59:22 51°14.004 2°55.451 -999 5.132158 33.912356 4.814512
2006-04-18 07:00:22 51°14.004 2°55.45 -999 5.131639 33.912329 4.814512
2006-04-18 07:01:22 51°14.004 2°55.45 -999 5.131119 33.912302 4.814512
2006-04-18 07:02:22 51°14.005 2°55.451 -999 5.130704 33.913047 4.814512
2006-04-18 07:03:22 51°14.004 2°55.45 -999 5.130184 33.912473 4.814512
2006-04-18 07:04:22 51°14.007 2°55.45 -999 5.129665 33.912447 4.814512
2006-04-18 07:05:23 51°14.007 2°55.45 -999 5.129145 33.911873 4.814512
2006-04-18 07:06:23 51°14.007 2°55.45 -999 5.128626 33.911847 4.814512
2006-04-18 07:07:23 51°14.007 2°55.45 -999 5.128106 33.911821 4.814512
2006-04-18 07:08:22 51°14.007 2°55.45 -999 5.12769 33.912568 4.814512
2006-04-18 07:09:22 51°14.007 2°55.45 -999 5.127171 33.911994 4.814512
2006-04-18 07:10:23 51°14.007 2°55.45 -999 5.126651 33.911969 4.814512
2006-04-18 07:11:22 51°14.007 2°55.45 -999 5.126132 33.911396 4.814512
2006-04-18 07:12:23 51°14.007 2°55.449 -999 5.125612 33.911371 4.814512
2006-04-18 07:13:22 51°14.006 2°55.448 -999 5.125197 33.912118 4.814512
2006-04-18 07:14:22 51°14.007 2°55.449 -999 5.124677 33.912093 4.814512
2006-04-18 07:15:22 51°14.007 2°55.449 -999 5.124158 33.911521 4.780802
2006-04-18 07:16:22 51°14.006 2°55.449 -999 5.123638 33.911496 4.814512
2006-04-18 07:17:22 51°14.007 2°55.45 -999 5.123223 33.912244 4.780802
2006-04-18 07:18:22 51°14.006 2°55.449 -999 5.122703 33.91222 4.780802
2006-04-18 07:19:22 51°14.007 2°55.449 -999 5.122184 33.911648 4.780802
2006-04-18 07:20:22 51°14.007 2°55.449 -999 5.121664 33.912173 4.780802
2006-04-18 07:21:22 51°14.006 2°55.449 -999 5.121248 33.912922 4.780802
2006-04-18 07:22:23 51°14.007 2°55.449 -999 5.120729 33.91235 4.780802
2006-04-18 07:23:23 51°14.007 2°55.449 -999 5.120313 33.9131 4.780802
2006-04-18 07:24:23 51°14.007 2°55.448 -999 5.119794 33.913077 4.780802
2006-04-18 07:25:21 51°14.007 2°55.449 -999 5.119274 33.913054 4.780802
2006-04-18 07:26:22 51°14.007 2°55.449 -999 5.118755 33.913031 4.780802
2006-04-18 07:27:22 51°14.006 2°55.449 -999 5.118235 33.913008 4.780802
2006-04-18 07:28:23 51°14.006 2°55.449 -999 5.11782 33.913759 4.780802
2006-04-18 07:29:23 51°14.006 2°55.45 -999 5.117196 33.912964 4.780802
2006-04-18 07:30:22 51°14.006 2°55.451 -999 5.116781 33.913166 4.780802
2006-04-18 07:31:22 51°14.006 2°55.451 -999 5.116261 33.913144 4.780802
2006-04-18 07:32:22 51°14.006 2°55.451 -999 5.115742 33.913122 4.780802
2006-04-18 07:33:22 51°14.006 2°55.45 -999 5.115222 33.913101 4.780802
2006-04-18 07:34:22 51°14.006 2°55.449 -999 5.114703 33.912529 4.780802
2006-04-18 07:35:23 51°14.007 2°55.45 -999 5.114183 33.912508 4.780802
2006-04-18 07:36:23 51°14.007 2°55.449 -999 5.113664 33.911937 4.780802
2006-04-18 07:37:22 51°14.006 2°55.448 -999 5.113248 33.91324 4.780802
2006-04-18 07:38:22 51°14.006 2°55.448 -999 5.112729 33.912669 4.780802
2006-04-18 07:39:22 51°14.006 2°55.448 -999 5.112209 33.912649 4.780802
2006-04-18 07:40:23 51°14.007 2°55.449 -999 5.111794 33.913402 4.780802
2006-04-18 07:41:22 51°14.007 2°55.45 -999 5.111274 33.913382 4.780802
2006-04-18 07:42:22 51°14.006 2°55.449 -999 5.110754 33.912812 4.780802
2006-04-18 07:43:23 51°14.006 2°55.449 -999 5.110235 33.913342 4.780802
2006-04-18 07:44:23 51°14.005 2°55.448 -999 5.109716 33.913322 4.780802
2006-04-18 07:45:22 51°14.005 2°55.449 -999 5.109196 33.912752 4.780802
2006-04-18 07:46:23 51°14.006 2°55.45 -999 5.10878 33.913507 4.780802
2006-04-18 07:47:23 51°14.006 2°55.45 -999 5.108157 33.912713 4.780802
2006-04-18 07:48:22 51°14.005 2°55.45 -999 5.107741 33.912918 4.747093
2006-04-18 07:49:23 51°14.006 2°55.45 -999 5.107222 33.912899 4.780802
2006-04-18 07:50:23 51°14.005 2°55.451 -999 5.106702 33.91288 4.780802
2006-04-18 07:51:22 51°14.004 2°55.448 -999 5.106287 33.913085 4.747093
2006-04-18 07:52:22 51°14.007 2°55.451 -999 5.105767 33.911965 4.780802
2006-04-18 07:53:22 51°14.006 2°55.45 -999 5.105352 33.911619 4.780802
2006-04-18 07:54:23 51°14.006 2°55.449 -999 5.104936 33.911825 4.780802
2006-04-18 07:55:22 51°14.006 2°55.449 -999 5.104521 33.911479 4.780802
2006-04-18 07:56:22 51°14.007 2°55.451 -999 5.104105 33.911134 4.747093
2006-04-18 07:57:22 51°14.006 2°55.449 -999 5.103689 33.91134 4.747093
2006-04-18 07:58:22 51°14.006 2°55.449 -999 5.103378 33.91177 4.780802
2006-04-18 07:59:22 51°14.006 2°55.45 -999 5.102962 33.911977 4.780802
2006-04-18 08:00:22 51°14.007 2°55.451 -999 5.102547 33.911631 4.747093
2006-04-18 08:01:22 51°14.006 2°55.45 -999 5.102235 33.913165 4.747093
2006-04-18 08:02:22 51°14.007 2°55.452 -999 5.101715 33.912596 4.780802
2006-04-18 08:03:23 51°13.994 2°55.466 -999 5.1013 33.912252 4.747093
2006-04-18 08:04:22 51°14.042 2°55.436 -999 5.10078 33.911683 4.747093
2006-04-18 08:05:23 51°14.153 2°55.389 -999 5.100365 33.912993 4.747093
2006-04-18 08:06:23 51°14.256 2°55.27 -999 5.099845 33.912977 4.747093
2006-04-18 08:07:22 51°14.339 2°55.112 -999 4.177682 34.081495 6.365144
2006-04-18 08:08:22 51°14.409 2°54.909 -999 3.244392 28.803005 5.926922
2006-04-18 08:09:22 51°14.417 2°54.594 -999 3.384947 30.482337 6.061759
2006-04-18 08:10:22 51°14.327 2°54.274 -999 3.531551 32.114986 5.589828
2006-04-18 08:11:22 51°14.222 2°53.959 -999 3.614398 33.001544 5.994341
2006-04-18 08:12:22 51°14.121 2°53.635 -999 3.630556 33.228201 6.095469
2006-04-18 08:13:22 51°14.014 2°53.311 -999 3.623099 33.164644 6.230306
2006-04-18 08:14:22 51°13.907 2°52.989 -999 3.640499 33.360911 6.297725
2006-04-18 08:15:21 51°13.806 2°52.667 -999 3.563344 32.583773 5.825794
2006-04-18 08:16:22 51°13.704 2°52.333 -999 3.660904 33.549012 6.398853
2006-04-18 08:17:22 51°13.6 2°52.008 -999 3.671158 33.624382 7.949486
2006-04-18 08:18:22 51°13.483 2°51.694 -999 3.707931 34.012169 4.949349
2006-04-18 08:19:22 51°13.376 2°51.37 -999 3.711557 34.097452 5.252734
2006-04-18 08:20:22 51°13.266 2°51.048 -999 3.714251 34.170888 5.522409
2006-04-18 08:21:22 51°13.153 2°50.728 -999 3.705964 34.140414 5.960631
2006-04-18 08:22:22 51°13.048 2°50.401 -999 3.70959 34.137587 5.4887
2006-04-18 08:23:22 51°12.941 2°50.076 -999 3.7099 34.144174 5.151606
2006-04-18 08:24:22 51°12.833 2°49.751 -999 3.704618 34.116389 5.758375
2006-04-18 08:25:22 51°12.72 2°49.429 -999 3.711248 34.197172 5.387571
2006-04-18 08:26:22 51°12.606 2°49.106 -999 3.705137 34.194188 5.556118
2006-04-18 08:27:22 51°12.491 2°48.786 -999 3.707623 34.222304 5.45499
2006-04-18 08:28:22 51°12.377 2°48.463 -999 3.70928 34.223086 5.825794
2006-04-18 08:29:22 51°12.262 2°48.14 -999 3.709073 34.217537 5.4887
2006-04-18 08:30:22 51°12.149 2°47.817 -999 3.708244 34.197918 5.320153
2006-04-18 08:31:22 51°12.038 2°47.493 -999 3.709694 34.211957 5.252734
2006-04-18 08:32:22 51°11.931 2°47.162 -999 3.708969 34.233579 5.421281
2006-04-18 08:33:22 51°11.824 2°46.834 -999 3.707312 34.254221 5.825794
2006-04-18 08:34:22 51°11.716 2°46.505 -999 3.701822 34.225151 5.893212
2006-04-18 08:35:22 51°11.61 2°46.174 -999 3.69799 34.214838 6.230306
2006-04-18 08:36:22 51°11.505 2°45.844 -999 3.698405 34.2337 6.162888
2006-04-18 08:37:22 51°11.4 2°45.514 -999 3.696333 34.233818 6.533691
2006-04-18 08:38:22 51°11.297 2°45.182 -999 3.695919 34.23642 6.702238
2006-04-18 08:39:22 51°11.199 2°44.846 -999 3.694573 34.240586 6.938204
2006-04-18 08:40:22 51°11.101 2°44.512 -999 3.694469 34.249843 7.207879
2006-04-18 08:41:22 51°10.999 2°44.181 -999 3.692087 34.238159 7.477554
2006-04-18 08:42:22 51°10.905 2°43.843 -999 3.696541 34.285016 7.780939
2006-04-18 08:43:22 51°10.808 2°43.509 -999 3.695608 34.259883 6.971913
2006-04-18 08:44:22 51°10.715 2°43.174 -999 3.696437 34.26241 6.971913
2006-04-18 08:45:22 51°10.622 2°42.842 -999 3.697162 34.256123 6.668529
2006-04-18 08:46:22 51°10.541 2°42.5 -999 3.69623 34.261133 6.668529
2006-04-18 08:47:22 51°10.448 2°42.166 -999 3.696645 34.311105 7.342717
2006-04-18 08:48:22 51°10.361 2°41.829 -999 3.695816 34.325863 7.780939
2006-04-18 08:49:22 51°10.275 2°41.493 -999 3.696438 34.334885 7.646101
2006-04-18 08:50:22 51°10.183 2°41.16 -999 3.694159 34.296632 7.410136
2006-04-18 08:51:22 51°10.099 2°40.824 -999 3.691362 34.229812 7.309007
2006-04-18 08:52:22 51°10.014 2°40.487 -999 3.690117 34.079071 6.938204
2006-04-18 08:53:22 51°9.929 2°40.15 -999 3.684728 33.85009 7.039332
2006-04-18 08:54:22 51°9.838 2°39.817 -999 3.676544 33.65925 7.410136
2006-04-18 08:55:22 51°9.757 2°39.478 -999 3.676232 33.593628 7.74723
2006-04-18 08:56:22 51°9.673 2°39.139 -999 3.676646 33.563799 7.949486
2006-04-18 08:57:22 51°9.585 2°38.801 -999 3.681411 33.632992 7.915777
2006-04-18 08:58:22 51°9.499 2°38.461 -999 3.695188 33.792342 7.882067
2006-04-18 08:59:22 51°9.409 2°38.126 -999 3.708758 33.892785 8.050614
2006-04-18 09:00:22 51°9.32 2°37.79 -999 3.719946 34.052946 8.016905
2006-04-18 09:01:22 51°9.244 2°37.464 -999 3.720053 34.340664 7.71352
2006-04-18 09:02:22 51°9.18 2°37.293 -999 3.705657 34.413791 7.646101
2006-04-18 09:03:22 51°9.152 2°37.201 -999 3.7011 34.449921 7.780939
2006-04-18 09:04:23 51°9.154 2°37.193 -999 3.694264 34.443406 8.522546
2006-04-18 09:05:22 51°9.157 2°37.185 -999 3.692296 34.438653 8.724802
2006-04-18 09:06:22 51°9.16 2°37.175 -999 3.693436 34.450488 8.758512
2006-04-18 09:07:22 51°9.16 2°37.164 -999 3.692089 34.429531 8.657383
2006-04-18 09:08:22 51°9.159 2°37.154 -999 3.692607 34.430554 8.724802
2006-04-18 09:09:22 51°9.157 2°37.145 -999 3.691985 34.418877 8.657383
2006-04-18 09:10:22 51°9.154 2°37.137 -999 3.692607 34.422717 8.623674
2006-04-18 09:11:22 51°9.15 2°37.129 -999 3.692607 34.414014 8.488836
2006-04-18 09:12:22 51°9.145 2°37.12 -999 3.698925 34.465654 8.589965
2006-04-18 09:13:22 51°9.14 2°37.112 -999 3.698511 34.46571 8.488836
2006-04-18 09:14:22 51°9.134 2°37.103 -999 3.698097 34.455314 8.455127
2006-04-18 09:15:22 51°9.092 2°37.088 -999 3.699858 34.463134 8.421418
2006-04-18 09:16:22 51°9.053 2°36.954 -999 3.69965 34.467951 8.28658
2006-04-18 09:17:22 51°9.131 2°36.86 -999 3.696543 34.468811 8.522546
2006-04-18 09:18:22 51°9.212 2°36.916 -999 3.697061 34.468086 8.522546
2006-04-18 09:19:22 51°9.246 2°36.998 -999 3.697372 34.440828 8.353999
2006-04-18 09:20:22 51°9.27 2°37.088 -999 3.701514 34.409923 8.28658
2006-04-18 09:21:22 51°9.283 2°37.182 -999 3.705036 34.411694 8.589965
2006-04-18 09:22:22 51°9.297 2°37.268 -999 3.707211 34.391771 8.691093
2006-04-18 09:23:22 51°9.305 2°37.345 -999 3.713631 34.306366 8.556255
2006-04-18 09:24:22 51°9.306 2°37.426 -999 3.716635 34.315812 8.893349
2006-04-18 09:25:21 51°9.302 2°37.511 -999 3.715287 34.218996 9.163024
2006-04-18 09:26:22 51°9.298 2°37.601 -999 3.721604 34.103616 8.994477
2006-04-18 09:27:22 51°9.295 2°37.69 -999 3.720775 34.063924 9.095606
2006-04-18 09:28:22 51°9.292 2°37.778 -999 3.723261 34.047126 9.163024
2006-04-18 09:29:22 51°9.293 2°37.863 -999 3.724918 34.01775 9.129315
2006-04-18 09:30:22 51°9.3 2°37.946 -999 3.726367 34.001444 9.095606
2006-04-18 09:31:22 51°9.312 2°38.026 -999 3.723156 33.96044 9.095606
2006-04-18 09:32:22 51°9.335 2°38.097 -999 3.719323 33.897278 9.129315
2006-04-18 09:33:22 51°9.371 2°38.154 -999 3.714661 33.819987 9.129315
2006-04-18 09:34:22 51°9.401 2°38.218 -999 3.707616 33.735311 9.264153
2006-04-18 09:35:22 51°9.42 2°38.292 -999 3.698398 33.719081 9.365281
2006-04-18 09:36:22 51°9.44 2°38.369 -999 3.689074 33.515415 9.297862
2006-04-18 09:37:22 51°9.46 2°38.444 -999 3.677887 33.3892 9.331571
2006-04-18 09:38:22 51°9.482 2°38.52 -999 3.676644 33.364354 9.365281
2006-04-18 09:39:22 51°9.503 2°38.594 -999 3.679647 33.384857 9.39899
2006-04-18 09:40:22 51°9.525 2°38.668 -999 3.684412 33.440356 9.39899
2006-04-18 09:41:22 51°9.546 2°38.743 -999 3.691974 33.524978 9.4327
2006-04-18 09:42:22 51°9.567 2°38.817 -999 3.694046 33.546742 9.533828
2006-04-18 09:43:22 51°9.591 2°38.887 -999 3.699432 33.585527 9.533828
2006-04-18 09:44:22 51°9.616 2°38.959 -999 3.700986 33.605354 9.567537
2006-04-18 09:45:22 51°9.627 2°39.063 -999 3.707617 33.749423 9.668665
2006-04-18 09:46:22 51°9.617 2°39.181 -999 3.712071 33.828702 9.466409
2006-04-18 09:47:22 51°9.587 2°39.291 -999 3.704925 33.869697 9.567537
2006-04-18 09:48:22 51°9.525 2°39.375 -999 3.715387 33.939279 9.365281
2006-04-18 09:49:22 51°9.469 2°39.453 -999 3.71922 33.991702 9.904631
2006-04-18 09:50:22 51°9.473 2°39.519 -999 3.708652 33.720094 9.668665
2006-04-18 09:51:22 51°9.509 2°39.541 -999 3.722431 33.952238 10.241725
2006-04-18 09:52:22 51°9.54 2°39.543 -999 3.722432 34.07323 10.477691
2006-04-18 09:53:22 51°9.566 2°39.536 -999 3.718807 34.084368 10.241725
2006-04-18 09:54:22 51°9.595 2°39.532 -999 3.71715 34.083507 9.904631
2006-04-18 09:55:22 51°9.654 2°39.565 -999 3.717046 34.079914 9.736084
2006-04-18 09:56:22 51°9.723 2°39.636 -999 3.712386 34.099147 9.634956
2006-04-18 09:57:22 51°9.789 2°39.727 -999 3.709485 34.078801 9.4327
2006-04-18 09:58:22 51°9.856 2°39.87 -999 3.709383 34.165256 9.39899
2006-04-18 09:59:22 51°9.949 2°40.128 -999 3.708246 34.339455 10.106888
2006-04-18 10:00:22 51°10.043 2°40.4 -999 3.70576 34.36383 10.376563
2006-04-18 10:01:22 51°10.134 2°40.675 -999 3.704206 34.365922 10.612529
2006-04-18 10:02:22 51°10.224 2°40.949 -999 3.704828 34.368886 10.949623
2006-04-18 10:03:22 51°10.315 2°41.222 -999 3.703171 34.356948 11.185589
2006-04-18 10:04:22 51°10.407 2°41.494 -999 3.703067 34.361062 11.08446
2006-04-18 10:05:22 51°10.497 2°41.768 -999 3.701617 34.360769 10.713657
2006-04-18 10:06:22 51°10.592 2°42.037 -999 3.701721 34.359246 10.848494
2006-04-18 10:07:22 51°10.679 2°42.308 -999 3.70141 34.354305 10.612529
2006-04-18 10:08:22 51°10.767 2°42.579 -999 3.702446 34.351184 10.410272
2006-04-18 10:09:22 51°10.859 2°42.846 -999 3.703274 34.350244 10.140597
2006-04-18 10:10:22 51°10.947 2°43.115 -999 3.703895 34.341986 10.005759
2006-04-18 10:11:22 51°11.038 2°43.378 -999 3.703895 34.341124 9.938341
2006-04-18 10:12:22 51°11.128 2°43.643 -999 3.706588 34.327531 9.668665
2006-04-18 10:13:22 51°11.215 2°43.909 -999 3.707313 34.332425 9.736084
2006-04-18 10:14:22 51°11.305 2°44.174 -999 3.707313 34.332425 9.634956
2006-04-18 10:15:22 51°11.39 2°44.443 -999 3.706485 34.329909 9.668665
2006-04-18 10:16:22 51°11.474 2°44.716 -999 3.706174 34.324119 9.601247
2006-04-18 10:17:22 51°11.549 2°44.996 -999 3.705863 34.332977 9.533828
2006-04-18 10:18:22 51°11.62 2°45.28 -999 3.703999 34.337016 9.533828
2006-04-18 10:19:22 51°11.684 2°45.571 -999 3.703688 34.342436 9.466409
2006-04-18 10:20:22 51°11.748 2°45.858 -999 3.703378 34.335776 9.4327
2006-04-18 10:21:22 51°11.812 2°46.147 -999 3.703896 34.352345 9.365281
2006-04-18 10:22:22 51°11.877 2°46.438 -999 3.705346 34.344015 9.365281
2006-04-18 10:23:22 51°11.941 2°46.725 -999 3.70752 34.331977 9.331571
2006-04-18 10:24:22 51°12.006 2°47.012 -999 3.708245 34.316209 9.297862
2006-04-18 10:25:22 51°12.087 2°47.286 -999 3.708556 34.297916 9.39899
2006-04-18 10:26:22 51°12.172 2°47.558 -999 3.708556 34.285032 9.601247
2006-04-18 10:27:22 51°12.257 2°47.831 -999 3.71042 34.282766 9.500118
2006-04-18 10:28:22 51°12.348 2°48.099 -999 3.709175 34.13164 10.005759
2006-04-18 10:29:22 51°12.438 2°48.368 -999 3.706897 34.196045 9.702375
2006-04-18 10:30:22 51°12.531 2°48.635 -999 3.704515 34.195494 9.500118
2006-04-18 10:31:23 51°12.625 2°48.908 -999 3.703375 34.110448 9.500118
2006-04-18 10:32:22 51°12.716 2°49.171 -999 3.697882 33.842375 9.736084
2006-04-18 10:33:22 51°12.806 2°49.444 -999 3.697884 34.004963 9.837212
2006-04-18 10:34:22 51°12.897 2°49.714 -999 3.695605 33.965564 9.904631
2006-04-18 10:35:22 51°12.985 2°49.99 -999 3.694673 33.980551 9.803503
2006-04-18 10:36:22 51°13.069 2°50.269 -999 3.698816 33.989965 9.668665
2006-04-18 10:37:22 51°13.15 2°50.551 -999 3.696641 33.977009 9.702375
2006-04-18 10:38:22 51°13.231 2°50.83 -999 3.692601 33.925542 9.938341
2006-04-18 10:39:22 51°13.309 2°51.112 -999 3.689388 33.802734 10.005759
2006-04-18 10:40:22 51°13.389 2°51.395 -999 3.685038 33.752507 10.039469
2006-04-18 10:41:22 51°13.468 2°51.676 -999 3.682966 33.75315 10.073178
2006-04-18 10:42:22 51°13.562 2°51.946 -999 3.688145 33.803472 9.97205
2006-04-18 10:43:22 51°13.652 2°52.224 -999 3.69084 33.89404 9.938341
2006-04-18 10:44:22 51°13.743 2°52.499 -999 3.691668 33.910102 9.938341
2006-04-18 10:45:23 51°13.835 2°52.78 -999 3.688354 33.924311 10.140597
2006-04-18 10:46:22 51°13.926 2°53.053 -999 3.682657 33.885402 10.073178
2006-04-18 10:47:22 51°14.027 2°53.322 -999 3.667843 33.588932 9.870922
2006-04-18 10:48:23 51°14.124 2°53.591 -999 3.663181 33.481644 10.106888
2006-04-18 10:49:22 51°14.202 2°53.825 -999 3.66401 33.466875 10.073178
2006-04-18 10:50:23 51°14.3 2°54.075 -999 3.660902 33.44274 10.073178
2006-04-18 10:51:22 51°14.385 2°54.337 -999 3.653341 33.33291 10.174306
2006-04-18 10:52:22 51°14.401 2°54.647 -999 3.645574 33.328206 10.342853
2006-04-18 10:53:22 51°14.387 2°54.955 -999 3.634596 33.330547 11.050751
2006-04-18 10:54:22 51°14.316 2°55.179 -999 3.555574 32.261334 11.69123
2006-04-18 10:55:23 51°14.231 2°55.312 -999 3.3482 30.068515 11.893486
2006-04-18 10:56:22 51°14.146 2°55.391 -999 3.301625 29.652712 12.567674
2006-04-18 10:57:23 51°14.062 2°55.453 -999 3.331124 30.021515 13.814922
2006-04-18 10:58:22 51°13.99 2°55.511 -999 3.328743 29.977818 15.298136
2006-04-18 10:59:22 51°13.899 2°55.58 -999 3.350997 30.240899 14.152016
2006-04-18 11:00:22 51°13.812 2°55.65 -999 3.317462 29.929345 12.432836
2006-04-18 11:01:22 51°13.748 2°55.731 -999 2.986688 26.431475 13.309281
2006-04-18 11:02:26 51°13.693 2°55.83 -999 3.120645 27.835914 13.814922
2006-04-18 11:03:26 51°13.649 2°55.927 -999 3.113611 27.795874 13.174443
2006-04-18 11:04:26 51°13.619 2°56.009 -999 3.116922 27.888077 12.297999
2006-04-18 11:05:26 51°13.606 2°56.074 -999 2.928774 25.930046 11.826067
2006-04-18 11:06:26 51°13.602 2°56.095 -999 3.197211 28.732164 12.062033